Time;durP1;ratioP1;P1;durP2;ratioP2;P2;SDS_P1;SDS_P2;PMS_P1;PMS_P2;Temp;Humidity;BMP_temperature;BMP_pressure;BME280_temperature;BME280_humidity;BME280_pressure;Samples;Min_cycle;Max_cycle;Signal;HPM_P1;HPM_P2
2021/12/10 00:00:19;;;;;;;14.07;4.38;;;10.70;81.20;;;;;;5094150;28;20062;-66
2021/12/10 00:02:46;;;;;;;9.20;3.45;;;10.70;81.20;;;;;;5094649;28;20481;-70
2021/12/10 00:05:22;;;;;;;13.73;3.83;;;10.70;81.30;;;;;;5094406;28;20059;-70
2021/12/10 00:07:48;;;;;;;10.57;3.75;;;10.70;81.30;;;;;;5094449;28;20024;-68
2021/12/10 00:10:21;;;;;;;12.77;4.32;;;10.70;81.30;;;;;;5094014;28;20047;-63
2021/12/10 00:12:51;;;;;;;9.85;3.55;;;10.70;81.30;;;;;;5092708;28;20024;-62
2021/12/10 00:15:25;;;;;;;9.45;4.43;;;10.70;81.10;;;;;;5094406;28;20032;-62
2021/12/10 00:17:53;;;;;;;11.65;4.15;;;10.70;81.50;;;;;;5094822;28;20024;-66
2021/12/10 00:20:20;;;;;;;10.00;3.47;;;10.70;81.40;;;;;;5093798;28;20066;-68
2021/12/10 00:22:55;;;;;;;8.02;3.50;;;10.70;81.40;;;;;;5094143;28;20107;-68
2021/12/10 00:25:34;;;;;;;15.45;4.25;;;10.70;81.50;;;;;;5094007;28;20020;-69
2021/12/10 00:28:13;;;;;;;15.02;4.30;;;10.60;81.60;;;;;;5093991;28;20574;-69
2021/12/10 00:30:54;;;;;;;11.23;3.20;;;10.70;81.40;;;;;;5093457;28;20074;-66
2021/12/10 00:33:21;;;;;;;8.13;2.83;;;10.70;81.40;;;;;;5094033;28;20031;-70
2021/12/10 00:35:48;;;;;;;11.73;3.28;;;10.70;81.50;;;;;;5094120;28;20039;-69
2021/12/10 00:38:14;;;;;;;9.23;3.28;;;10.60;81.60;;;;;;5077001;28;20017;-67
2021/12/10 00:40:40;;;;;;;7.68;3.08;;;10.60;81.60;;;;;;5073207;28;20029;-69
2021/12/10 00:43:06;;;;;;;11.80;4.40;;;10.60;81.50;;;;;;5073545;28;20020;-67
2021/12/10 00:45:33;;;;;;;8.48;3.45;;;10.70;81.50;;;;;;5073143;28;20040;-69
2021/12/10 00:47:59;;;;;;;8.65;3.70;;;10.60;81.50;;;;;;5073236;28;20020;-69
2021/12/10 00:50:29;;;;;;;10.48;3.42;;;10.60;81.50;;;;;;5073291;28;20054;-68
2021/12/10 00:52:55;;;;;;;11.77;3.83;;;10.60;81.80;;;;;;5073383;28;20074;-69
2021/12/10 00:55:22;;;;;;;11.15;3.55;;;10.70;81.80;;;;;;5073316;28;20493;-65
2021/12/10 00:57:48;;;;;;;11.70;3.35;;;10.60;81.80;;;;;;5072865;28;20032;-67
2021/12/10 01:00:19;;;;;;;9.07;3.53;;;10.70;81.80;;;;;;5073387;28;20625;-65
2021/12/10 01:02:45;;;;;;;10.18;3.35;;;10.60;81.80;;;;;;5073096;28;20023;-68
2021/12/10 01:05:12;;;;;;;7.35;2.78;;;10.60;81.80;;;;;;5073303;28;20153;-68
2021/12/10 01:07:38;;;;;;;11.05;3.83;;;10.60;81.90;;;;;;5080607;28;20441;-68
2021/12/10 01:10:26;;;;;;;10.30;3.38;;;10.60;81.80;;;;;;5092937;28;20389;-66
2021/12/10 01:12:55;;;;;;;11.77;3.45;;;10.60;82.00;;;;;;5093081;28;20032;-65
2021/12/10 01:28:53;;;;;;;10.23;2.45;;;10.60;82.10;;;;;;5092902;28;20847;-68
2021/12/10 01:31:19;;;;;;;5.13;2.83;;;10.60;82.20;;;;;;5093315;28;20493;-69
2021/12/10 01:33:46;;;;;;;6.75;2.55;;;10.60;82.20;;;;;;5093024;28;20620;-69
2021/12/10 01:36:12;;;;;;;5.70;2.42;;;10.60;82.20;;;;;;5091934;28;20465;-67
2021/12/10 01:38:42;;;;;;;11.07;3.20;;;10.60;82.50;;;;;;5073569;28;20539;-65
2021/12/10 01:41:12;;;;;;;7.25;2.47;;;10.60;82.50;;;;;;5073045;28;20020;-62
2021/12/10 01:43:40;;;;;;;6.70;2.88;;;10.60;82.70;;;;;;5073340;28;20031;-66
2021/12/10 01:46:11;;;;;;;6.10;2.40;;;10.60;82.70;;;;;;5073204;28;20427;-68
2021/12/10 01:48:46;;;;;;;5.53;2.17;;;10.60;82.90;;;;;;5072903;28;20166;-67
2021/12/10 01:51:15;;;;;;;6.75;2.60;;;10.60;82.90;;;;;;5073077;28;20021;-69
2021/12/10 01:53:43;;;;;;;8.10;2.72;;;10.60;83.10;;;;;;5072841;28;20081;-65
2021/12/10 01:56:14;;;;;;;7.78;2.53;;;10.60;83.00;;;;;;5072679;28;20028;-67
2021/12/10 01:58:40;;;;;;;8.23;2.73;;;10.60;82.90;;;;;;5072782;28;20104;-68
2021/12/10 02:01:10;;;;;;;8.05;2.38;;;10.60;82.90;;;;;;5072817;28;20066;-68
2021/12/10 02:03:37;;;;;;;6.18;2.25;;;10.60;82.90;;;;;;5071462;28;20527;-68
2021/12/10 02:06:04;;;;;;;6.70;2.50;;;10.60;82.90;;;;;;5072655;28;20466;-66
2021/12/10 02:08:31;;;;;;;6.25;2.10;;;10.60;82.90;;;;;;5072593;28;20035;-67
2021/12/10 02:10:56;;;;;;;6.35;1.98;;;10.60;83.00;;;;;;5072419;28;20028;-69
2021/12/10 02:13:22;;;;;;;6.35;2.08;;;10.60;83.00;;;;;;5072382;28;20054;-68
2021/12/10 02:15:48;;;;;;;5.75;1.80;;;10.60;83.10;;;;;;5072588;28;20035;-64
2021/12/10 02:18:14;;;;;;;7.88;2.60;;;10.50;83.20;;;;;;5090886;28;20036;-69
2021/12/10 02:21:00;;;;;;;4.45;1.85;;;10.50;83.30;;;;;;5092407;28;20073;-69
2021/12/10 02:23:27;;;;;;;7.45;2.25;;;10.60;83.30;;;;;;5092457;28;20484;-65
2021/12/10 02:25:53;;;;;;;3.45;1.90;;;10.60;83.30;;;;;;5092369;28;20529;-69
2021/12/10 02:28:19;;;;;;;5.68;1.98;;;10.50;83.30;;;;;;5092765;28;20055;-67
2021/12/10 02:30:45;;;;;;;4.40;1.65;;;10.50;83.40;;;;;;5092437;28;20485;-69
2021/12/10 02:33:11;;;;;;;5.47;1.95;;;10.50;83.50;;;;;;5092457;28;20481;-68
2021/12/10 02:35:37;;;;;;;3.55;1.40;;;10.60;83.50;;;;;;5094946;28;20099;-66
2021/12/10 02:38:05;;;;;;;7.53;1.80;;;10.60;83.80;;;;;;5078125;28;20095;-68
2021/12/10 02:40:32;;;;;;;5.03;1.58;;;10.50;83.90;;;;;;5075581;28;20074;-69
2021/12/10 02:43:02;;;;;;;4.90;1.98;;;10.50;84.00;;;;;;5075807;28;20032;-68
2021/12/10 02:45:29;;;;;;;5.10;1.48;;;10.50;84.00;;;;;;5075648;28;20079;-67
2021/12/10 02:47:55;;;;;;;3.30;1.30;;;10.50;84.30;;;;;;5075800;28;20067;-69
2021/12/10 02:50:24;;;;;;;5.47;1.25;;;10.50;84.30;;;;;;5075568;28;20056;-68
2021/12/10 02:52:50;;;;;;;5.38;1.65;;;10.50;84.30;;;;;;5075617;28;20583;-69
2021/12/10 02:55:17;;;;;;;4.38;1.20;;;10.50;84.50;;;;;;5075325;28;20035;-68
2021/12/10 02:57:49;;;;;;;4.15;1.30;;;10.50;84.70;;;;;;5075769;28;20039;-68
2021/12/10 03:00:23;;;;;;;6.82;1.15;;;10.50;84.70;;;;;;5076056;28;20132;-67
2021/12/10 03:02:49;;;;;;;3.70;1.27;;;10.50;84.80;;;;;;5076348;28;20043;-64
2021/12/10 03:05:15;;;;;;;3.63;1.08;;;10.50;85.00;;;;;;5075280;28;20385;-67
2021/12/10 03:07:41;;;;;;;4.38;1.15;;;10.50;85.00;;;;;;5075265;28;20017;-67
2021/12/10 03:10:16;;;;;;;5.68;1.10;;;10.50;84.90;;;;;;5074812;28;20489;-66
2021/12/10 03:12:41;;;;;;;3.50;0.90;;;10.50;84.90;;;;;;5075170;28;20085;-66
2021/12/10 03:15:08;;;;;;;2.75;0.98;;;10.50;84.90;;;;;;5075139;28;20432;-68
2021/12/10 03:17:34;;;;;;;3.17;0.85;;;10.50;85.00;;;;;;5075211;28;20393;-63
2021/12/10 03:20:05;;;;;;;3.15;0.85;;;10.50;84.90;;;;;;5073970;28;20025;-65
2021/12/10 03:22:31;;;;;;;2.63;0.80;;;10.50;85.10;;;;;;5074977;28;20039;-68
2021/12/10 03:24:58;;;;;;;3.30;0.90;;;10.50;85.10;;;;;;5074605;28;20024;-64
2021/12/10 03:27:23;;;;;;;3.15;1.00;;;10.50;85.00;;;;;;5094540;28;20054;-64
2021/12/10 03:29:50;;;;;;;3.03;0.73;;;10.50;85.00;;;;;;5095010;28;20040;-64
2021/12/10 03:32:20;;;;;;;2.90;0.50;;;10.50;85.10;;;;;;5095122;28;20020;-63
2021/12/10 03:34:46;;;;;;;2.20;0.60;;;10.50;85.10;;;;;;5094683;28;20028;-65
2021/12/10 03:37:13;;;;;;;1.85;0.80;;;10.50;85.10;;;;;;5094832;28;20025;-66
2021/12/10 03:39:39;;;;;;;2.58;0.40;;;10.40;85.70;;;;;;5095013;28;20063;-67
2021/12/10 03:42:06;;;;;;;4.63;0.50;;;10.40;85.10;;;;;;5094820;28;20048;-65
2021/12/10 03:44:33;;;;;;;2.55;0.75;;;10.40;85.00;;;;;;5094686;28;20043;-66
2021/12/10 03:47:00;;;;;;;2.10;0.50;;;10.50;85.10;;;;;;5094557;28;20016;-68
2021/12/10 03:49:26;;;;;;;1.58;0.40;;;10.40;85.30;;;;;;5094664;28;20403;-68
2021/12/10 03:51:52;;;;;;;1.75;0.40;;;10.40;85.10;;;;;;5094332;28;20477;-66
2021/12/10 03:54:18;;;;;;;2.45;0.50;;;10.40;85.20;;;;;;5094687;28;20020;-65
2021/12/10 03:56:45;;;;;;;1.90;0.50;;;10.40;85.70;;;;;;5084634;28;20031;-64
2021/12/10 03:59:21;;;;;;;1.58;0.40;;;10.40;85.10;;;;;;5094277;28;20063;-67
2021/12/10 04:01:50;;;;;;;1.60;0.35;;;10.40;85.10;;;;;;5093301;28;20028;-66
2021/12/10 04:04:27;;;;;;;1.77;0.55;;;10.40;85.30;;;;;;5094558;28;20024;-63
2021/12/10 04:06:55;;;;;;;2.95;0.63;;;10.40;85.30;;;;;;5093894;28;20023;-64
2021/12/10 04:09:22;;;;;;;1.25;0.30;;;10.30;85.30;;;;;;5094277;28;20028;-68
2021/12/10 04:11:48;;;;;;;1.33;0.50;;;10.30;85.40;;;;;;5093966;28;20407;-69
2021/12/10 04:14:13;;;;;;;2.80;0.43;;;10.30;85.40;;;;;;5094416;28;20068;-64
2021/12/10 04:16:39;;;;;;;1.95;0.70;;;10.30;85.30;;;;;;5094034;28;20093;-65
2021/12/10 04:19:09;;;;;;;2.53;0.50;;;10.30;85.30;;;;;;5094201;28;20100;-68
2021/12/10 04:21:40;;;;;;;2.83;0.50;;;10.30;85.40;;;;;;5093751;28;20051;-67
2021/12/10 04:24:13;;;;;;;1.60;0.35;;;10.30;85.30;;;;;;5094137;28;20031;-66
2021/12/10 04:26:39;;;;;;;3.17;0.55;;;10.30;85.40;;;;;;5083597;28;20021;-68
2021/12/10 04:29:05;;;;;;;1.15;0.60;;;10.20;85.50;;;;;;5073536;28;20086;-68
2021/12/10 04:31:31;;;;;;;1.20;0.30;;;10.30;85.40;;;;;;5073539;28;20032;-68
2021/12/10 04:33:56;;;;;;;2.70;0.60;;;10.20;85.40;;;;;;5072442;28;20020;-68
2021/12/10 04:36:22;;;;;;;2.10;1.00;;;10.20;85.40;;;;;;5073269;28;20443;-68
2021/12/10 04:38:48;;;;;;;0.80;0.20;;;10.20;85.50;;;;;;5073406;28;20035;-68
2021/12/10 04:41:14;;;;;;;1.80;0.38;;;10.20;85.40;;;;;;5073636;28;20366;-68
2021/12/10 04:43:42;;;;;;;5.63;1.00;;;10.20;85.70;;;;;;5073591;28;20063;-68
2021/12/10 04:46:08;;;;;;;2.10;0.22;;;10.20;86.10;;;;;;5073444;28;20025;-65
2021/12/10 04:48:47;;;;;;;2.65;0.52;;;10.10;85.40;;;;;;5072222;28;20027;-67
2021/12/10 04:51:13;;;;;;;1.92;0.47;;;10.00;85.00;;;;;;5072789;28;20025;-66
2021/12/10 04:53:39;;;;;;;2.30;0.35;;;10.00;85.10;;;;;;5073506;28;20488;-67
2021/12/10 04:56:04;;;;;;;1.23;0.60;;;10.00;84.70;;;;;;5073208;28;20032;-67
2021/12/10 04:58:32;;;;;;;1.23;0.30;;;9.90;85.00;;;;;;5072759;28;20020;-68
2021/12/10 05:00:57;;;;;;;1.88;0.20;;;9.90;84.80;;;;;;5073299;28;20029;-67
2021/12/10 05:03:23;;;;;;;1.23;0.38;;;9.80;85.00;;;;;;5073216;28;20540;-67
2021/12/10 05:05:49;;;;;;;1.25;0.28;;;9.80;85.00;;;;;;5072839;28;20421;-67
2021/12/10 05:08:15;;;;;;;0.95;0.20;;;9.80;85.30;;;;;;5072982;28;20027;-68
2021/12/10 05:10:41;;;;;;;0.98;0.20;;;9.80;85.40;;;;;;5073284;28;20032;-68
2021/12/10 05:13:07;;;;;;;0.90;0.40;;;9.80;85.50;;;;;;5072936;28;20024;-68
2021/12/10 05:15:38;;;;;;;1.52;0.38;;;9.70;85.60;;;;;;5073218;28;20082;-68
2021/12/10 05:18:05;;;;;;;2.22;0.43;;;9.70;85.50;;;;;;5073341;28;20101;-64
2021/12/10 05:20:37;;;;;;;1.30;0.30;;;9.80;85.50;;;;;;5073111;28;20025;-65
2021/12/10 05:23:03;;;;;;;1.85;0.30;;;9.70;85.50;;;;;;5079415;28;20099;-62
2021/12/10 05:25:30;;;;;;;1.35;0.28;;;9.70;85.80;;;;;;5075241;28;20040;-65
2021/12/10 05:27:57;;;;;;;2.67;0.60;;;9.70;85.70;;;;;;5071856;28;20020;-66
2021/12/10 05:30:27;;;;;;;1.00;0.30;;;9.70;85.70;;;;;;5073023;28;20102;-61
2021/12/10 05:32:53;;;;;;;1.85;0.32;;;9.70;85.80;;;;;;5091070;28;20424;-65
2021/12/10 05:35:19;;;;;;;1.27;0.28;;;9.70;85.90;;;;;;5092780;28;20489;-66
2021/12/10 05:37:44;;;;;;;0.77;0.25;;;9.70;85.90;;;;;;5093033;28;20028;-66
2021/12/10 05:40:12;;;;;;;1.50;0.47;;;9.70;85.80;;;;;;5092993;28;20030;-62
2021/12/10 05:42:40;;;;;;;0.77;0.20;;;9.60;85.80;;;;;;5092869;28;20035;-67
2021/12/10 05:45:07;;;;;;;0.88;0.32;;;9.60;85.70;;;;;;5092941;28;20064;-62
2021/12/10 05:47:32;;;;;;;1.35;0.10;;;9.60;85.90;;;;;;5092994;28;20024;-62
2021/12/10 05:49:58;;;;;;;3.25;0.30;;;9.60;86.20;;;;;;5092499;28;20106;-66
2021/12/10 05:52:23;;;;;;;2.95;0.40;;;9.60;86.00;;;;;;5091841;28;20021;-67
2021/12/10 05:54:52;;;;;;;0.60;0.20;;;9.60;85.90;;;;;;5092030;28;20036;-68
2021/12/10 05:57:18;;;;;;;1.85;0.40;;;9.60;86.00;;;;;;5092809;28;20031;-63
2021/12/10 05:59:44;;;;;;;1.52;0.20;;;9.50;85.70;;;;;;5082235;28;20027;-66
2021/12/10 06:02:10;;;;;;;1.02;0.20;;;9.50;85.90;;;;;;5082795;28;20032;-66
2021/12/10 06:04:36;;;;;;;2.05;0.30;;;9.60;85.90;;;;;;5091651;28;20020;-67
2021/12/10 06:07:03;;;;;;;1.35;0.35;;;9.50;85.70;;;;;;5091738;28;20472;-68
2021/12/10 06:09:29;;;;;;;0.50;0.20;;;9.50;85.60;;;;;;5110302;28;20130;-67
2021/12/10 06:11:55;;;;;;;0.70;0.20;;;9.50;85.50;;;;;;5110678;28;20055;-66
2021/12/10 06:14:21;;;;;;;1.05;0.10;;;9.50;85.60;;;;;;5095152;28;20028;-66
2021/12/10 06:16:46;;;;;;;0.80;0.22;;;9.50;85.70;;;;;;5094499;28;20440;-65
2021/12/10 06:19:12;;;;;;;0.45;0.10;;;9.50;86.00;;;;;;5095476;28;20469;-67
2021/12/10 06:21:39;;;;;;;0.90;0.20;;;9.50;85.80;;;;;;5096091;28;20469;-67
2021/12/10 06:24:08;;;;;;;0.55;0.20;;;9.50;86.20;;;;;;5083651;28;20074;-65
2021/12/10 06:26:33;;;;;;;0.55;0.30;;;9.50;85.90;;;;;;5076337;28;20412;-65
2021/12/10 06:28:59;;;;;;;1.20;0.20;;;9.50;85.90;;;;;;5075878;28;20535;-67
2021/12/10 06:31:25;;;;;;;1.85;0.38;;;9.50;85.90;;;;;;5076922;28;20382;-67
2021/12/10 06:33:52;;;;;;;0.80;0.22;;;9.50;85.90;;;;;;5096421;28;20020;-64
2021/12/10 06:36:19;;;;;;;0.80;0.10;;;9.40;85.90;;;;;;5096359;28;20458;-62
2021/12/10 06:38:45;;;;;;;1.05;0.30;;;9.50;86.10;;;;;;5094818;28;20032;-62
2021/12/10 06:41:13;;;;;;;14.48;0.82;;;9.50;85.70;;;;;;5075696;28;20024;-66
2021/12/10 06:43:39;;;;;;;1.15;0.30;;;9.60;86.40;;;;;;5076058;28;20433;-68
2021/12/10 06:46:06;;;;;;;1.35;0.20;;;9.80;85.90;;;;;;5078569;28;20454;-66
2021/12/10 06:48:32;;;;;;;0.70;0.13;;;9.90;85.90;;;;;;5086287;28;20019;-65
2021/12/10 06:51:02;;;;;;;2.42;0.28;;;10.00;85.20;;;;;;5086666;28;20100;-61
2021/12/10 06:53:29;;;;;;;1.02;0.30;;;10.10;85.00;;;;;;5078387;28;20023;-62
2021/12/10 06:55:55;;;;;;;1.60;0.43;;;10.10;85.50;;;;;;5076457;28;20024;-64
2021/12/10 06:58:23;;;;;;;3.92;0.28;;;10.20;85.80;;;;;;5076410;28;20103;-65
2021/12/10 07:00:59;;;;;;;7.05;0.57;;;10.30;86.50;;;;;;5086308;28;20123;-62
2021/12/10 07:03:26;;;;;;;3.47;0.40;;;10.60;85.10;;;;;;5083177;28;20107;-63
2021/12/10 07:05:54;;;;;;;1.75;0.43;;;10.80;85.50;;;;;;5085115;28;20538;-63
2021/12/10 07:08:22;;;;;;;2.42;0.30;;;11.00;83.20;;;;;;5077518;28;20024;-63
2021/12/10 07:10:48;;;;;;;2.25;0.22;;;11.10;82.90;;;;;;5087444;28;20047;-61
2021/12/10 07:13:15;;;;;;;1.83;0.25;;;11.20;82.40;;;;;;5083071;28;20111;-61
2021/12/10 07:15:45;;;;;;;2.25;0.45;;;11.30;82.20;;;;;;5094861;28;20028;-65
2021/12/10 07:18:11;;;;;;;0.95;0.30;;;11.40;82.10;;;;;;5095033;28;20104;-65
2021/12/10 07:20:38;;;;;;;3.25;0.30;;;11.50;82.10;;;;;;5091892;28;20044;-65
2021/12/10 07:23:04;;;;;;;3.60;0.38;;;11.60;82.30;;;;;;5088754;28;20473;-67
2021/12/10 07:25:29;;;;;;;3.33;0.63;;;11.70;82.00;;;;;;5074398;28;20032;-65
2021/12/10 07:27:55;;;;;;;3.20;0.40;;;11.80;81.10;;;;;;5074304;28;20036;-66
2021/12/10 07:30:24;;;;;;;0.60;0.30;;;11.80;80.40;;;;;;5079266;28;20393;-62
2021/12/10 07:32:50;;;;;;;1.30;0.40;;;11.70;79.30;;;;;;5080952;28;20028;-65
2021/12/10 07:35:16;;;;;;;2.15;0.20;;;11.40;80.10;;;;;;5074970;28;20486;-66
2021/12/10 07:37:42;;;;;;;0.75;0.30;;;11.20;80.70;;;;;;5094815;28;20016;-66
2021/12/10 07:40:12;;;;;;;1.70;0.30;;;11.00;80.70;;;;;;5094551;28;20028;-66
2021/12/10 07:42:38;;;;;;;1.42;0.43;;;10.90;81.40;;;;;;5114167;28;20103;-66
2021/12/10 07:45:06;;;;;;;1.52;0.50;;;10.80;82.10;;;;;;5083259;28;20163;-62
2021/12/10 07:47:35;;;;;;;2.72;0.80;;;10.70;82.30;;;;;;5090633;28;20115;-66
2021/12/10 07:50:03;;;;;;;2.08;0.73;;;10.70;83.60;;;;;;5114737;28;20031;-64
2021/12/10 07:52:33;;;;;;;1.35;0.57;;;10.70;83.10;;;;;;5104988;28;20022;-64
2021/12/10 07:55:00;;;;;;;2.05;0.70;;;10.70;82.40;;;;;;5091011;28;20034;-65
2021/12/10 07:57:27;;;;;;;1.05;0.73;;;10.60;82.40;;;;;;5092797;28;20020;-65
2021/12/10 07:59:52;;;;;;;2.65;0.60;;;10.50;83.00;;;;;;5074902;28;20545;-65
2021/12/10 08:02:19;;;;;;;1.75;0.85;;;10.50;83.30;;;;;;5091462;28;20111;-65
2021/12/10 08:04:45;;;;;;;1.40;0.40;;;10.40;83.60;;;;;;5093372;28;20024;-64
2021/12/10 08:07:13;;;;;;;2.95;0.80;;;10.50;83.40;;;;;;5093350;28;20043;-66
2021/12/10 08:09:39;;;;;;;1.65;0.50;;;10.50;83.80;;;;;;5085347;28;20036;-63
2021/12/10 08:12:05;;;;;;;0.93;0.30;;;10.50;83.80;;;;;;5094879;28;20028;-62
2021/12/10 08:14:31;;;;;;;0.88;0.60;;;10.50;82.40;;;;;;5089325;28;20035;-64
2021/12/10 08:16:56;;;;;;;1.38;0.68;;;10.40;82.70;;;;;;5085802;28;20389;-65
2021/12/10 08:19:22;;;;;;;3.28;0.75;;;10.40;82.50;;;;;;5085869;28;20024;-63
2021/12/10 08:21:47;;;;;;;1.40;0.43;;;10.40;82.70;;;;;;5078259;28;20077;-65
2021/12/10 08:24:13;;;;;;;1.58;0.50;;;10.30;82.40;;;;;;5078031;28;20056;-63
2021/12/10 08:26:39;;;;;;;1.65;0.70;;;10.40;82.70;;;;;;5078509;28;20538;-61
2021/12/10 08:29:06;;;;;;;1.38;0.70;;;10.30;82.60;;;;;;5077254;28;20025;-66
2021/12/10 08:31:32;;;;;;;2.13;0.60;;;10.30;82.80;;;;;;5078298;28;20115;-64
2021/12/10 08:33:59;;;;;;;0.73;0.38;;;10.30;83.10;;;;;;5081365;28;20044;-63
2021/12/10 08:36:24;;;;;;;1.33;0.65;;;10.30;82.90;;;;;;5081358;28;20432;-63
2021/12/10 08:38:52;;;;;;;1.10;0.65;;;10.30;83.40;;;;;;5089401;28;20525;-67
2021/12/10 08:41:25;;;;;;;1.27;0.70;;;10.30;83.30;;;;;;5093250;28;20106;-64
2021/12/10 08:43:56;;;;;;;3.10;0.65;;;10.20;83.10;;;;;;5091712;28;20025;-66
2021/12/10 08:46:25;;;;;;;2.10;0.60;;;10.30;83.40;;;;;;5073327;28;20167;-63
2021/12/10 08:48:51;;;;;;;1.38;0.70;;;10.20;83.00;;;;;;5077650;28;20380;-67
2021/12/10 08:51:31;;;;;;;2.60;0.65;;;10.20;83.30;;;;;;5084092;28;20477;-66
2021/12/10 08:53:57;;;;;;;0.90;0.50;;;10.20;83.80;;;;;;5088061;28;20032;-64
2021/12/10 08:56:22;;;;;;;2.78;0.60;;;10.30;83.80;;;;;;5079965;28;20023;-65
2021/12/10 08:58:49;;;;;;;2.28;0.70;;;10.30;83.70;;;;;;5081057;28;20017;-66
2021/12/10 09:01:22;;;;;;;2.35;0.70;;;10.40;83.80;;;;;;5081021;28;20043;-66
2021/12/10 09:03:50;;;;;;;0.80;0.57;;;10.50;82.50;;;;;;5079369;28;20102;-66
2021/12/10 09:06:18;;;;;;;1.38;0.70;;;10.40;83.50;;;;;;5086966;28;20024;-64
2021/12/10 09:08:44;;;;;;;1.50;0.70;;;10.50;83.40;;;;;;5080247;28;20023;-64
2021/12/10 09:11:11;;;;;;;1.42;0.65;;;10.60;82.20;;;;;;5086016;28;20226;-65
2021/12/10 09:13:37;;;;;;;2.08;0.60;;;10.50;82.00;;;;;;5083080;28;20036;-62
2021/12/10 09:16:08;;;;;;;2.90;1.33;;;10.40;82.20;;;;;;5089618;28;20030;-62
2021/12/10 09:18:34;;;;;;;1.73;0.90;;;10.30;82.90;;;;;;5090614;28;20024;-67
2021/12/10 09:21:01;;;;;;;2.45;1.10;;;10.30;82.70;;;;;;5089806;28;20032;-65
2021/12/10 09:23:29;;;;;;;1.60;0.70;;;10.40;83.20;;;;;;5091112;28;20461;-65
2021/12/10 09:25:59;;;;;;;1.63;0.70;;;10.40;83.30;;;;;;5080571;28;20033;-64
2021/12/10 09:28:25;;;;;;;2.15;0.90;;;10.30;82.50;;;;;;5086581;28;20024;-66
2021/12/10 09:30:54;;;;;;;1.40;0.77;;;10.20;83.00;;;;;;5091651;28;20032;-65
2021/12/10 09:33:21;;;;;;;1.75;0.47;;;10.00;82.90;;;;;;5082774;28;20035;-66
2021/12/10 09:35:47;;;;;;;1.63;0.60;;;10.00;83.20;;;;;;5088041;28;20047;-65
2021/12/10 09:38:13;;;;;;;1.05;0.60;;;10.00;83.70;;;;;;5089106;28;20024;-66
2021/12/10 09:40:42;;;;;;;1.08;0.70;;;10.00;83.20;;;;;;5090711;28;20042;-67
2021/12/10 09:43:11;;;;;;;1.80;0.70;;;10.00;83.20;;;;;;5084740;28;20470;-67
2021/12/10 09:45:39;;;;;;;1.88;0.60;;;10.00;83.20;;;;;;5075174;28;20036;-67
2021/12/10 09:48:07;;;;;;;1.52;0.65;;;10.10;83.20;;;;;;5080014;28;20020;-65
2021/12/10 09:50:38;;;;;;;1.23;0.60;;;10.20;82.80;;;;;;5088897;28;20032;-68
2021/12/10 09:53:04;;;;;;;1.00;0.60;;;10.20;82.80;;;;;;5087487;28;20024;-67
2021/12/10 09:55:30;;;;;;;2.75;0.60;;;10.20;83.20;;;;;;5092860;28;20024;-63
2021/12/10 09:57:56;;;;;;;1.73;0.65;;;10.30;83.40;;;;;;5087162;28;20025;-61
2021/12/10 10:00:31;;;;;;;1.70;0.70;;;10.20;84.00;;;;;;5089167;28;20020;-63
2021/12/10 10:02:57;;;;;;;2.47;0.70;;;10.30;83.00;;;;;;5088026;28;20439;-62
2021/12/10 10:05:27;;;;;;;2.03;0.98;;;10.40;81.80;;;;;;5086820;28;20126;-61
2021/12/10 10:07:58;;;;;;;1.48;0.60;;;10.40;82.10;;;;;;5087603;28;20505;-62
2021/12/10 10:10:28;;;;;;;2.28;0.65;;;10.40;82.20;;;;;;5093689;28;20039;-63
2021/12/10 10:12:55;;;;;;;1.50;0.80;;;10.40;82.50;;;;;;5095702;28;20032;-65
2021/12/10 10:15:28;;;;;;;2.33;0.95;;;10.40;82.90;;;;;;5077490;28;20044;-62
2021/12/10 10:18:01;;;;;;;1.50;0.77;;;10.50;82.40;;;;;;5089168;28;20027;-67
2021/12/10 10:20:30;;;;;;;1.70;0.88;;;10.50;82.60;;;;;;5084733;28;20118;-63
2021/12/10 10:22:56;;;;;;;1.80;1.30;;;10.50;82.70;;;;;;5092713;28;20020;-63
2021/12/10 10:25:25;;;;;;;2.63;1.70;;;10.50;83.00;;;;;;5084402;28;20469;-64
2021/12/10 10:27:51;;;;;;;2.03;1.45;;;10.50;82.80;;;;;;5089956;28;20377;-61
2021/12/10 10:30:28;;;;;;;2.15;1.75;;;10.50;82.70;;;;;;5074200;28;20480;-61
2021/12/10 10:32:55;;;;;;;2.13;1.38;;;10.50;83.00;;;;;;5083711;28;20016;-61
2021/12/10 10:35:27;;;;;;;3.60;1.13;;;10.60;82.50;;;;;;5084429;28;20048;-61
2021/12/10 10:37:53;;;;;;;4.07;1.52;;;10.50;82.30;;;;;;5081056;28;20581;-65
2021/12/10 10:40:29;;;;;;;1.23;1.10;;;10.40;83.50;;;;;;5079010;28;20020;-60
2021/12/10 10:42:56;;;;;;;1.20;1.08;;;10.30;82.40;;;;;;5077813;28;20502;-64
2021/12/10 10:45:26;;;;;;;1.90;0.90;;;10.20;81.90;;;;;;5083759;28;20028;-65
2021/12/10 10:47:53;;;;;;;1.77;1.20;;;10.20;82.00;;;;;;5074683;28;20020;-64
2021/12/10 10:50:23;;;;;;;1.55;1.25;;;10.10;83.10;;;;;;5084066;28;20036;-65
2021/12/10 10:52:53;;;;;;;2.65;1.17;;;10.10;83.10;;;;;;5085409;28;20425;-66
2021/12/10 10:55:24;;;;;;;1.98;1.17;;;10.10;82.80;;;;;;5076539;28;20115;-69
2021/12/10 10:57:52;;;;;;;1.52;1.17;;;10.10;82.90;;;;;;5073844;28;20020;-64
2021/12/10 11:00:49;;;;;;;3.55;2.25;;;10.10;83.30;;;;;;5088895;28;20028;-66
2021/12/10 11:03:23;;;;;;;5.28;3.22;;;10.00;84.10;;;;;;5069001;28;20139;-64
2021/12/10 11:05:58;;;;;;;4.53;2.03;;;10.10;84.80;;;;;;5078318;28;20028;-66
2021/12/10 11:08:30;;;;;;;7.63;1.77;;;10.50;84.50;;;;;;5086427;28;20024;-67
2021/12/10 11:11:04;;;;;;;;;;;10.60;83.00;;;;;;5087117;28;20467;-67
2021/12/10 11:13:31;;;;;;;2.35;1.48;;;10.70;82.50;;;;;;5076770;28;19925;-68
2021/12/10 11:16:06;;;;;;;4.32;1.70;;;10.70;82.00;;;;;;5084556;28;20038;-66
2021/12/10 11:19:04;;;;;;;2.17;1.70;;;10.80;82.30;;;;;;5079642;28;20032;-67
2021/12/10 11:21:39;;;;;;;4.07;1.48;;;10.80;82.20;;;;;;5093291;28;20040;-67
2021/12/10 11:24:16;;;;;;;1.48;1.38;;;10.90;82.40;;;;;;5078839;28;20033;-67
2021/12/10 11:27:23;;;;;;;1.25;1.15;;;10.90;82.20;;;;;;5085150;28;20028;-67
2021/12/10 11:29:55;;;;;;;4.85;1.45;;;11.00;82.40;;;;;;5071878;28;20056;-68
2021/12/10 11:32:44;;;;;;;8.55;1.52;;;11.00;82.30;;;;;;5082635;28;20023;-68
2021/12/10 11:35:27;;;;;;;5.60;1.08;;;11.10;82.30;;;;;;5081831;28;20308;-66
2021/12/10 11:37:58;;;;;;;2.40;1.30;;;11.20;82.60;;;;;;5085405;28;20463;-69
2021/12/10 11:40:40;;;;;;;1.67;1.05;;;11.20;81.70;;;;;;5088695;28;20465;-68
2021/12/10 11:43:31;;;;;;;2.58;1.20;;;11.40;81.50;;;;;;5076715;28;20028;-67
2021/12/10 11:46:27;;;;;;;2.22;1.38;;;11.40;81.40;;;;;;5075068;28;20036;-73
2021/12/10 11:49:05;;;;;;;2.72;1.42;;;11.40;81.50;;;;;;5077545;28;20038;-74
2021/12/10 11:51:39;;;;;;;2.78;1.25;;;11.40;81.20;;;;;;5079570;28;20036;-73
2021/12/10 11:54:32;;;;;;;2.80;1.85;;;11.40;80.50;;;;;;5078167;28;20021;-65
2021/12/10 11:57:08;;;;;;;;;;;11.30;80.90;;;;;;5086056;28;20474;-70
2021/12/10 11:59:38;;;;;;;3.50;1.67;;;11.30;80.80;;;;;;5080701;28;19908;-71
2021/12/10 12:02:11;;;;;;;2.58;1.35;;;11.20;81.00;;;;;;5081742;28;20024;-64
2021/12/10 12:04:39;;;;;;;;;;;11.10;80.90;;;;;;5076823;28;20024;-62
2021/12/10 12:07:25;;;;;;;1.75;1.27;;;11.10;80.80;;;;;;5081981;28;19904;-64
2021/12/10 12:10:06;;;;;;;3.35;1.60;;;11.10;81.10;;;;;;5078230;28;20067;-63
2021/12/10 12:12:45;;;;;;;1.80;1.30;;;11.10;81.10;;;;;;5078697;28;20050;-64
2021/12/10 12:15:39;;;;;;;3.80;1.65;;;11.10;81.90;;;;;;5072740;28;20511;-63
2021/12/10 12:18:07;;;;;;;4.05;1.92;;;11.20;80.50;;;;;;5072549;28;20095;-63
2021/12/10 12:20:44;;;;;;;3.03;1.42;;;11.20;80.50;;;;;;5071461;28;20127;-63
2021/12/10 12:26:08;;;;;;;1.80;1.50;;;11.20;80.50;;;;;;5081444;28;20046;-66
2021/12/10 12:28:39;;;;;;;2.22;2.00;;;11.10;80.60;;;;;;5093009;28;20024;-63
2021/12/10 12:31:12;;;;;;;5.25;2.00;;;11.20;80.50;;;;;;5092037;28;20036;-63
2021/12/10 12:33:57;;;;;;;2.45;2.22;;;11.20;80.40;;;;;;5083446;28;20465;-65
2021/12/10 12:36:37;;;;;;;3.13;2.30;;;11.10;80.80;;;;;;5071777;28;20025;-70
2021/12/10 12:39:25;;;;;;;2.50;2.30;;;11.10;81.70;;;;;;5087765;28;20021;-63
2021/12/10 12:41:52;;;;;;;3.47;3.05;;;11.20;79.70;;;;;;5083851;28;20035;-67
2021/12/10 12:44:30;;;;;;;6.13;4.43;;;11.20;80.10;;;;;;5090457;28;20032;-66
2021/12/10 12:47:07;;;;;;;4.70;3.10;;;11.20;79.70;;;;;;5077834;28;20470;-65
2021/12/10 12:49:48;;;;;;;2.85;2.30;;;11.30;79.80;;;;;;5089589;28;20024;-64
2021/12/10 12:52:17;;;;;;;7.72;5.13;;;11.40;80.00;;;;;;5083833;28;20032;-65
2021/12/10 12:55:05;;;;;;;8.25;5.10;;;11.40;80.00;;;;;;5072442;28;20469;-69
2021/12/10 12:58:05;;;;;;;11.05;7.20;;;11.40;80.20;;;;;;5085215;28;20075;-63
2021/12/10 13:00:34;;;;;;;10.35;6.32;;;11.40;80.10;;;;;;5076509;28;20066;-69
2021/12/10 13:03:07;;;;;;;5.30;4.80;;;11.50;80.40;;;;;;5090692;28;20034;-62
2021/12/10 13:05:53;;;;;;;7.38;4.70;;;11.50;80.00;;;;;;5086594;28;20016;-66
2021/12/10 13:08:24;;;;;;;7.75;5.30;;;11.50;80.20;;;;;;5075031;28;20032;-67
2021/12/10 13:11:04;;;;;;;8.50;7.00;;;11.60;80.40;;;;;;5091042;28;20354;-66
2021/12/10 13:13:38;;;;;;;6.80;5.93;;;11.50;79.90;;;;;;5091199;28;20036;-65
2021/12/10 13:16:08;;;;;;;5.20;4.70;;;11.50;80.50;;;;;;5090841;28;20028;-68